Aviation Digital Data Service (ADDS)

Output produced by TAFs form (1835 UTC 01 September 2014)
found at http://aviationweather.gov/adds/tafs/
 
KLVS 011737Z 0118/0218 22011KT P6SM SKC 
     FM011900 23014G24KT P6SM FEW090 
     FM020200 28008KT P6SM SKC 
     FM020700 36006KT P6SM SKC 
     FM021700 16009KT P6SM SKC